createdAt,value
2018-02-13T00:00:10.293Z,6.77
2018-02-13T00:02:40.679Z,7.20
2018-02-13T00:05:18.785Z,6.90
2018-02-13T00:07:51.558Z,6.30
2018-02-13T00:10:29.857Z,6.70
2018-02-13T00:12:58.432Z,6.90
2018-02-13T00:15:27.759Z,6.97
2018-02-13T00:17:56.217Z,6.23
2018-02-13T00:20:25.568Z,6.70
2018-02-13T00:22:54.326Z,6.30
2018-02-13T00:25:25.618Z,6.00
2018-02-13T00:28:09.210Z,6.37
2018-02-13T00:30:37.750Z,6.20
2018-02-13T00:33:08.427Z,6.40
2018-02-13T00:35:38.641Z,6.43
2018-02-13T00:38:09.585Z,6.60
2018-02-13T00:40:38.166Z,6.37
2018-02-13T00:43:08.291Z,6.00
2018-02-13T00:45:37.196Z,6.30
2018-02-13T00:48:05.994Z,5.87
2018-02-13T00:50:36.172Z,6.93
2018-02-13T00:53:06.737Z,5.70
2018-02-13T00:55:35.487Z,6.07
2018-02-13T00:58:04.189Z,5.93
2018-02-13T01:00:32.797Z,5.87
2018-02-13T01:03:03.432Z,5.40
2018-02-13T01:05:33.692Z,5.20
2018-02-13T01:08:03.563Z,5.80
2018-02-13T01:10:32.061Z,7.27
2018-02-13T01:13:03.008Z,6.07
2018-02-13T01:15:33.205Z,5.80
2018-02-13T01:18:18.767Z,6.20
2018-02-13T01:20:47.284Z,5.87
2018-02-13T01:23:16.471Z,6.03
2018-02-13T01:25:45.230Z,5.30
2018-02-13T01:28:31.391Z,6.17
2018-02-13T01:31:01.663Z,5.57
2018-02-13T01:33:34.265Z,6.03
2018-02-13T01:36:04.616Z,5.57
2018-02-13T01:38:42.724Z,7.17
2018-02-13T01:41:12.410Z,5.57
2018-02-13T01:43:42.746Z,5.73
2018-02-13T01:46:20.200Z,6.13
2018-02-13T01:48:52.818Z,6.07
2018-02-13T01:54:17.094Z,5.90
2018-02-13T01:56:47.363Z,5.57
2018-02-13T01:59:18.535Z,6.10
2018-02-13T02:01:53.893Z,5.37
2018-02-13T02:04:33.237Z,5.63
2018-02-13T02:07:03.527Z,6.83
2018-02-13T02:09:36.050Z,5.97
2018-02-13T02:12:04.717Z,6.30
2018-02-13T02:14:35.211Z,6.60
2018-02-13T02:19:42.252Z,6.50
2018-02-13T02:22:13.340Z,5.67
2018-02-13T02:24:46.365Z,6.53
2018-02-13T02:27:25.295Z,6.93
2018-02-13T02:29:55.459Z,7.33
2018-02-13T02:32:25.737Z,6.73
2018-02-13T02:34:55.353Z,7.83
2018-02-13T02:37:26.756Z,6.87
2018-02-13T02:39:57.093Z,6.93
2018-02-13T02:56:30.883Z,6.13
2018-02-13T02:59:00.367Z,7.20
2018-02-13T03:01:51.870Z,6.90
2018-02-13T03:04:22.166Z,6.20
2018-02-13T03:06:55.148Z,6.73
2018-02-13T03:09:27.993Z,6.80
2018-02-13T03:11:56.682Z,8.00
2018-02-13T03:14:26.971Z,6.93
2018-02-13T03:16:59.533Z,7.60
2018-02-13T03:19:34.720Z,7.60
2018-02-13T03:22:05.334Z,7.33
2018-02-13T03:24:44.378Z,7.17
2018-02-13T03:27:21.217Z,7.13
2018-02-13T03:29:54.601Z,6.90
2018-02-13T03:32:24.264Z,7.17
2018-02-13T03:34:55.349Z,7.40
2018-02-13T03:37:45.573Z,6.83
2018-02-13T03:40:14.272Z,6.37
2018-02-13T03:42:43.165Z,7.10
2018-02-13T03:45:14.283Z,7.30
2018-02-13T03:47:44.815Z,7.40
2018-02-13T03:50:14.907Z,6.80
2018-02-13T03:52:46.219Z,7.23
2018-02-13T03:55:17.863Z,6.93
2018-02-13T03:57:46.746Z,7.33
2018-02-13T04:00:15.261Z,7.27
2018-02-13T04:02:45.669Z,8.20
2018-02-13T04:05:17.194Z,7.60
2018-02-13T04:07:48.057Z,7.90
2018-02-13T04:10:19.244Z,7.70
2018-02-13T04:12:52.403Z,7.60
2018-02-13T04:21:09.337Z,7.00
2018-02-13T04:23:47.451Z,7.60
2018-02-13T04:26:31.964Z,7.90
2018-02-13T04:29:04.515Z,7.50
2018-02-13T04:31:34.064Z,7.70
2018-02-13T04:34:02.746Z,7.73
2018-02-13T04:36:31.920Z,7.67
2018-02-13T04:39:01.366Z,7.70
2018-02-13T04:41:31.508Z,9.40
2018-02-13T04:44:01.775Z,9.73
2018-02-13T04:46:33.478Z,8.13
2018-02-13T04:49:02.352Z,8.07
2018-02-13T04:51:32.440Z,7.47
2018-02-13T04:54:01.050Z,7.70
2018-02-13T04:56:31.335Z,7.20
2018-02-13T04:59:04.743Z,7.80
2018-02-13T05:01:35.986Z,7.37
2018-02-13T05:04:04.487Z,8.17
2018-02-13T05:06:35.809Z,7.80
2018-02-13T05:09:09.826Z,7.10
2018-02-13T05:14:16.191Z,7.73
2018-02-13T05:16:46.699Z,8.30
2018-02-13T05:19:18.550Z,7.50
2018-02-13T05:21:49.114Z,7.63
2018-02-13T05:24:20.775Z,7.77
2018-02-13T05:26:51.398Z,7.63
2018-02-13T05:29:19.919Z,7.43
2018-02-13T05:31:50.135Z,7.13
2018-02-13T05:34:23.313Z,7.57
2018-02-13T05:36:51.785Z,7.13
2018-02-13T05:39:22.438Z,8.00
2018-02-13T05:41:54.504Z,7.20
2018-02-13T05:44:22.912Z,6.43
2018-02-13T05:46:53.096Z,6.93
2018-02-13T05:49:23.887Z,7.87
2018-02-13T05:51:54.140Z,8.17
2018-02-13T05:54:26.174Z,6.90
2018-02-13T05:56:56.440Z,7.13
2018-02-13T05:59:29.229Z,8.47
2018-02-13T06:01:59.405Z,7.37
2018-02-13T06:04:28.328Z,6.70
2018-02-13T06:06:59.446Z,7.87
2018-02-13T06:09:28.695Z,8.77
2018-02-13T06:11:59.757Z,8.50
2018-02-13T06:14:30.908Z,9.00
2018-02-13T06:17:01.184Z,9.20
2018-02-13T06:19:46.157Z,9.27
2018-02-13T06:22:23.072Z,8.90
2018-02-13T06:24:52.312Z,8.50
2018-02-13T06:27:20.822Z,8.37
2018-02-13T06:29:49.368Z,9.00
2018-02-13T06:32:22.198Z,9.73
2018-02-13T06:34:50.790Z,8.90
2018-02-13T06:37:19.994Z,9.87
2018-02-13T06:39:49.200Z,9.03
2018-02-13T06:42:17.884Z,9.33
2018-02-13T06:44:47.968Z,9.67
2018-02-13T06:47:19.554Z,9.60
2018-02-13T06:49:48.039Z,10.17
2018-02-13T06:52:18.340Z,10.60
2018-02-13T06:54:49.530Z,10.43
2018-02-13T06:57:34.468Z,10.60
2018-02-13T07:00:04.398Z,10.73
2018-02-13T07:02:34.611Z,13.07
2018-02-13T07:05:03.507Z,16.67
2018-02-13T07:07:52.982Z,16.40
2018-02-13T07:13:13.518Z,15.50
2018-02-13T07:16:00.568Z,14.93
2018-02-13T07:18:45.591Z,13.40
2018-02-13T07:23:49.153Z,13.50
2018-02-13T07:29:02.312Z,13.80
2018-02-13T07:31:49.506Z,12.43
2018-02-13T07:34:19.822Z,12.67
2018-02-13T07:36:53.757Z,11.70
2018-02-13T07:39:35.051Z,13.33
2018-02-13T07:42:03.921Z,14.10
2018-02-13T07:44:48.662Z,14.97
2018-02-13T07:47:17.170Z,14.00
2018-02-13T07:49:47.485Z,15.47
2018-02-13T07:52:21.173Z,16.33
2018-02-13T07:54:51.497Z,16.83
2018-02-13T07:57:25.263Z,15.30
2018-02-13T07:59:53.889Z,14.33
2018-02-13T08:02:29.125Z,15.23
2018-02-13T08:04:59.210Z,14.60
2018-02-13T08:07:30.250Z,13.57
2018-02-13T08:10:00.469Z,14.10
2018-02-13T08:12:39.432Z,16.30
2018-02-13T08:15:10.653Z,15.67
2018-02-13T08:17:39.253Z,16.10
2018-02-13T08:20:08.470Z,15.97
2018-02-13T08:22:37.056Z,15.10
2018-02-13T08:25:05.514Z,15.40
2018-02-13T08:27:35.764Z,16.87
2018-02-13T08:30:08.266Z,18.43
2018-02-13T08:32:38.539Z,30.13
2018-02-13T08:38:03.165Z,20.20
2018-02-13T08:40:33.444Z,19.40
2018-02-13T08:43:05.943Z,16.40
2018-02-13T08:45:35.471Z,16.87
2018-02-13T08:48:05.776Z,16.47
2018-02-13T08:50:48.101Z,22.50
2018-02-13T08:53:18.429Z,21.10
2018-02-13T08:55:47.937Z,16.63
2018-02-13T09:00:52.039Z,14.30
2018-02-13T09:03:24.100Z,15.53
2018-02-13T09:05:56.965Z,16.70
2018-02-13T09:08:25.620Z,15.97
2018-02-13T09:11:04.361Z,14.50
2018-02-13T09:13:33.011Z,15.03
2018-02-13T09:16:03.557Z,15.63
2018-02-13T09:18:34.767Z,13.10
2018-02-13T09:21:03.438Z,12.37
2018-02-13T09:23:35.647Z,11.23
2018-02-13T09:26:06.048Z,12.33
2018-02-13T09:28:37.113Z,12.20
2018-02-13T09:31:06.682Z,12.30
2018-02-13T09:33:43.508Z,11.90
2018-02-13T09:36:12.105Z,12.30
2018-02-13T09:38:40.673Z,12.37
2018-02-13T09:41:09.255Z,12.90
2018-02-13T09:43:40.626Z,11.67
2018-02-13T09:46:12.244Z,11.93
2018-02-13T09:48:44.716Z,11.60
2018-02-13T09:51:15.124Z,12.80
2018-02-13T09:53:52.552Z,12.20
2018-02-13T09:56:22.821Z,12.03
2018-02-13T09:58:53.628Z,13.20
2018-02-13T10:01:23.560Z,12.23
2018-02-13T10:03:53.842Z,12.07
2018-02-13T10:06:37.964Z,12.70
2018-02-13T10:09:06.996Z,13.67
2018-02-13T10:11:38.069Z,13.43
2018-02-13T10:14:09.709Z,13.80
2018-02-13T10:16:40.074Z,13.90
2018-02-13T10:19:12.126Z,13.77
2018-02-13T10:21:51.226Z,13.80
2018-02-13T10:24:22.669Z,12.90
2018-02-13T10:26:52.856Z,11.57
2018-02-13T10:29:22.129Z,9.53
2018-02-13T10:31:50.945Z,8.73
2018-02-13T10:37:15.219Z,8.23
2018-02-13T10:39:43.755Z,8.70
2018-02-13T10:42:12.933Z,10.00
2018-02-13T10:44:43.172Z,9.13
2018-02-13T10:47:36.034Z,10.53
2018-02-13T10:50:04.502Z,11.60
2018-02-13T10:52:34.608Z,12.40
2018-02-13T10:55:14.081Z,12.97
2018-02-13T10:57:42.554Z,14.83
2018-02-13T11:00:12.660Z,11.80
2018-02-13T11:02:42.895Z,10.90
2018-02-13T11:05:12.236Z,13.40
2018-02-13T11:07:45.228Z,13.70
2018-02-13T11:10:13.904Z,12.33
2018-02-13T11:12:45.758Z,12.33
2018-02-13T11:15:35.641Z,10.90
2018-02-13T11:18:05.956Z,12.03
2018-02-13T11:20:36.516Z,11.10
2018-02-13T11:25:45.431Z,10.20
2018-02-13T11:28:16.153Z,11.37
2018-02-13T11:30:44.749Z,10.80
2018-02-13T11:33:16.304Z,9.33
2018-02-13T11:35:44.786Z,11.03
2018-02-13T11:38:21.481Z,10.27
2018-02-13T11:40:51.686Z,9.90
2018-02-13T11:43:24.206Z,9.93
2018-02-13T11:45:56.023Z,9.63
2018-02-13T11:48:25.327Z,10.27
2018-02-13T11:50:54.262Z,10.20
2018-02-13T11:53:29.874Z,9.70
2018-02-13T11:55:58.767Z,9.33
2018-02-13T11:58:34.998Z,10.20
2018-02-13T12:01:03.708Z,10.77
2018-02-13T12:03:33.892Z,10.50
2018-02-13T12:06:04.124Z,11.67
2018-02-13T12:08:34.451Z,11.03
2018-02-13T12:11:09.277Z,11.17
2018-02-13T12:13:39.512Z,10.97
2018-02-13T12:16:11.299Z,10.63
2018-02-13T12:18:39.840Z,10.97
2018-02-13T12:21:08.360Z,9.17
2018-02-13T12:23:39.927Z,8.60
2018-02-13T12:26:08.369Z,8.83
2018-02-13T12:28:39.522Z,8.90
2018-02-13T12:31:08.234Z,7.00
2018-02-13T12:33:38.538Z,7.73
2018-02-13T12:36:11.110Z,6.73
2018-02-13T12:38:44.457Z,7.80
2018-02-13T12:41:21.750Z,7.57
2018-02-13T12:43:50.926Z,7.13
2018-02-13T12:46:19.509Z,8.10
2018-02-13T12:48:47.988Z,7.80
2018-02-13T12:51:16.595Z,8.83
2018-02-13T12:53:45.141Z,7.20
2018-02-13T12:56:32.498Z,7.37
2018-02-13T12:59:05.046Z,7.90
2018-02-13T13:01:36.087Z,6.63
2018-02-13T13:04:07.859Z,7.00
2018-02-13T13:06:39.418Z,7.00
2018-02-13T13:09:08.232Z,7.10
2018-02-13T13:11:36.892Z,5.40
2018-02-13T13:14:07.063Z,5.97
2018-02-13T13:16:35.588Z,6.83
2018-02-13T13:19:04.290Z,6.03
2018-02-13T13:21:32.980Z,6.30
2018-02-13T13:24:01.460Z,8.10
2018-02-13T13:26:46.729Z,6.23
2018-02-13T13:29:19.861Z,5.90
2018-02-13T13:31:50.041Z,6.00
2018-02-13T13:34:21.390Z,5.47
2018-02-13T13:36:50.381Z,4.30
2018-02-13T13:39:18.983Z,3.93
2018-02-13T13:41:49.130Z,4.23
2018-02-13T13:44:17.785Z,5.30
2018-02-13T13:46:46.326Z,3.80
2018-02-13T13:49:23.483Z,3.37
2018-02-13T13:51:53.789Z,4.97
2018-02-13T13:54:31.324Z,6.60
2018-02-13T13:56:59.959Z,6.97
2018-02-13T13:59:30.227Z,6.30
2018-02-13T14:01:59.699Z,7.07
2018-02-13T14:04:29.638Z,6.30
2018-02-13T14:06:59.829Z,5.70
2018-02-13T14:09:36.158Z,5.50
2018-02-13T14:12:07.305Z,5.83
2018-02-13T14:14:36.299Z,5.10
2018-02-13T14:17:04.817Z,5.67
2018-02-13T14:19:34.126Z,5.40
2018-02-13T14:22:04.325Z,6.13
2018-02-13T14:24:32.778Z,6.10
2018-02-13T14:27:08.549Z,6.10
2018-02-13T14:29:37.907Z,6.37
2018-02-13T14:32:06.456Z,6.40
2018-02-13T14:34:39.233Z,6.63
2018-02-13T14:37:13.372Z,6.47
2018-02-13T14:39:43.585Z,6.37
2018-02-13T14:42:14.575Z,7.07
2018-02-13T14:44:45.689Z,6.50
2018-02-13T14:47:23.366Z,6.73
2018-02-13T14:49:53.563Z,6.80
2018-02-13T14:52:23.942Z,6.47
2018-02-13T14:54:54.051Z,6.17
2018-02-13T14:57:24.562Z,5.50
2018-02-13T14:59:56.951Z,6.77
2018-02-13T15:02:34.665Z,6.03
2018-02-13T15:05:03.388Z,6.20
2018-02-13T15:07:33.621Z,6.30
2018-02-13T15:10:04.485Z,6.27
2018-02-13T15:12:34.590Z,7.00
2018-02-13T15:15:06.226Z,7.40
2018-02-13T15:20:48.919Z,7.40
2018-02-13T15:23:17.570Z,7.50
2018-02-13T15:25:46.468Z,28.87
2018-02-13T15:28:15.071Z,11.87
2018-02-13T15:30:43.653Z,9.77
2018-02-13T15:33:12.332Z,6.87
2018-02-13T15:35:58.724Z,7.40
2018-02-13T15:38:27.316Z,9.10
2018-02-13T15:40:56.627Z,7.70
2018-02-13T15:43:25.298Z,8.53
2018-02-13T15:45:54.392Z,7.57
2018-02-13T15:48:22.873Z,7.87
2018-02-13T15:50:51.465Z,7.70
2018-02-13T15:53:20.056Z,8.27
2018-02-13T15:55:48.724Z,9.50
2018-02-13T15:58:17.855Z,7.60
2018-02-13T16:01:03.482Z,8.30
2018-02-13T16:03:46.422Z,8.53
2018-02-13T16:06:23.026Z,9.10
2018-02-13T16:08:52.350Z,7.47
2018-02-13T16:11:20.994Z,9.07
2018-02-13T16:13:49.710Z,8.13
2018-02-13T16:16:18.270Z,8.40
2018-02-13T16:18:46.756Z,7.50
2018-02-13T16:21:17.950Z,6.53
2018-02-13T16:23:46.471Z,24.07
2018-02-13T16:26:27.939Z,19.50
2018-02-13T16:28:56.442Z,13.73
2018-02-13T16:31:30.301Z,8.40
2018-02-13T16:33:58.839Z,7.10
2018-02-13T16:36:30.480Z,7.60
2018-02-13T16:38:59.080Z,8.30
2018-02-13T16:41:29.522Z,8.03
2018-02-13T16:43:58.816Z,7.83
2018-02-13T16:46:30.407Z,7.30
2018-02-13T16:49:00.693Z,8.43
2018-02-13T16:51:39.101Z,7.40
2018-02-13T16:54:09.434Z,7.80
2018-02-13T16:56:41.938Z,9.07
2018-02-13T16:59:10.466Z,9.20
2018-02-13T17:01:38.980Z,8.47
2018-02-13T17:04:11.676Z,8.73
2018-02-13T17:06:42.687Z,8.73
2018-02-13T17:09:11.392Z,8.17
2018-02-13T17:11:40.074Z,10.00
2018-02-13T17:14:10.392Z,8.93
2018-02-13T17:16:43.928Z,8.30
2018-02-13T17:19:14.222Z,8.93
2018-02-13T17:21:49.816Z,9.03
2018-02-13T17:24:19.607Z,8.70
2018-02-13T17:26:52.028Z,9.20
2018-02-13T17:29:23.715Z,10.73
2018-02-13T17:31:52.920Z,9.30
2018-02-13T17:34:25.644Z,11.33
2018-02-13T17:36:54.284Z,9.47
2018-02-13T17:39:25.838Z,9.07
2018-02-13T17:41:54.426Z,9.63
2018-02-13T17:44:24.698Z,9.87
2018-02-13T17:46:59.245Z,9.57
2018-02-13T17:49:35.993Z,9.53
2018-02-13T17:52:04.534Z,11.47
2018-02-13T17:54:33.031Z,9.97
2018-02-13T17:57:01.604Z,8.57
2018-02-13T17:59:36.536Z,8.93
2018-02-13T18:02:05.164Z,9.90
2018-02-13T18:04:45.260Z,10.63
2018-02-13T18:07:15.517Z,9.50
2018-02-13T18:09:44.993Z,9.40
2018-02-13T18:12:13.898Z,8.00
2018-02-13T18:14:44.072Z,9.57
2018-02-13T18:17:12.561Z,8.40
2018-02-13T18:19:41.193Z,8.10
2018-02-13T18:22:14.501Z,11.00
2018-02-13T18:24:44.828Z,9.53
2018-02-13T18:27:15.762Z,9.73
2018-02-13T18:29:46.372Z,9.90
2018-02-13T18:32:16.584Z,9.77
2018-02-13T18:34:46.890Z,10.80
2018-02-13T18:39:51.141Z,12.50
2018-02-13T18:42:30.119Z,11.80
2018-02-13T18:45:00.503Z,11.33
2018-02-13T18:47:29.833Z,11.00
2018-02-13T18:50:01.136Z,9.13
2018-02-13T18:55:19.778Z,11.90
2018-02-13T18:57:48.579Z,11.53
2018-02-13T19:00:17.212Z,12.10
2018-02-13T19:02:45.903Z,10.17
2018-02-13T19:05:16.186Z,10.83
2018-02-13T19:07:46.577Z,10.90
2018-02-13T19:10:27.613Z,11.37
2018-02-13T19:12:59.092Z,10.07
2018-02-13T19:15:28.396Z,9.40
2018-02-13T19:17:57.069Z,9.53
2018-02-13T19:20:27.489Z,10.43
2018-02-13T19:22:57.117Z,10.80
2018-02-13T19:25:27.310Z,10.47
2018-02-13T19:27:59.115Z,10.20
2018-02-13T19:30:29.492Z,9.43
2018-02-13T19:32:58.091Z,10.23
2018-02-13T19:35:26.906Z,10.00
2018-02-13T19:37:55.481Z,10.10
2018-02-13T19:40:24.147Z,10.70
2018-02-13T19:42:55.412Z,9.93
2018-02-13T19:45:25.853Z,9.90
2018-02-13T19:47:58.653Z,10.73
2018-02-13T19:50:31.529Z,11.97
2018-02-13T19:53:04.296Z,11.30
2018-02-13T19:55:34.948Z,11.00
2018-02-13T19:58:03.698Z,13.80
2018-02-13T20:00:33.195Z,11.50
2018-02-13T20:03:02.020Z,11.73
2018-02-13T20:05:31.630Z,11.47
2018-02-13T20:08:02.232Z,11.83
2018-02-13T20:10:31.932Z,11.57
2018-02-13T20:13:12.078Z,10.93
2018-02-13T20:15:42.658Z,10.80
2018-02-13T20:18:12.261Z,11.47
2018-02-13T20:20:41.068Z,11.03
2018-02-13T20:23:11.545Z,11.07
2018-02-13T20:25:42.941Z,14.67
2018-02-13T20:28:12.052Z,12.50
2018-02-13T20:30:42.485Z,13.27
2018-02-13T20:33:13.622Z,11.77
2018-02-13T20:35:44.719Z,11.73
2018-02-13T20:38:13.554Z,12.97
2018-02-13T20:40:43.227Z,12.97
2018-02-13T20:43:12.083Z,12.83
2018-02-13T20:45:41.122Z,14.00
2018-02-13T20:48:10.553Z,13.07
2018-02-13T20:50:39.241Z,12.93
2018-02-13T20:53:09.477Z,13.23
2018-02-13T20:55:40.306Z,12.20
2018-02-13T20:58:16.910Z,13.10
2018-02-13T21:00:48.608Z,14.70
2018-02-13T21:03:17.682Z,12.90
2018-02-13T21:05:48.153Z,13.17
2018-02-13T21:08:19.857Z,13.10
2018-02-13T21:10:50.218Z,13.57
2018-02-13T21:13:22.808Z,15.00
2018-02-13T21:15:53.325Z,13.53
2018-02-13T21:18:26.051Z,13.17
2018-02-13T21:20:59.653Z,13.23
2018-02-13T21:23:30.058Z,12.70
2018-02-13T21:26:05.915Z,11.80
2018-02-13T21:28:36.093Z,12.60
2018-02-13T21:31:04.826Z,12.10
2018-02-13T21:33:35.108Z,12.43
2018-02-13T21:36:07.583Z,11.73
2018-02-13T21:38:37.846Z,11.97
2018-02-13T21:41:09.084Z,13.00
2018-02-13T21:46:14.772Z,11.90
2018-02-13T21:48:43.260Z,13.27
2018-02-13T21:51:14.821Z,12.43
2018-02-13T21:53:45.995Z,12.10
2018-02-13T21:56:16.565Z,11.83
2018-02-13T21:58:47.607Z,12.60
2018-02-13T22:01:16.187Z,12.17
2018-02-13T22:03:47.819Z,13.07
2018-02-13T22:06:17.598Z,14.40
2018-02-13T22:08:46.184Z,13.00
2018-02-13T22:11:14.740Z,13.30
2018-02-13T22:13:45.135Z,13.37
2018-02-13T22:16:17.071Z,13.77
2018-02-13T22:18:47.426Z,14.60
2018-02-13T22:21:18.325Z,12.30
2018-02-13T22:23:48.855Z,13.40
2018-02-13T22:26:19.054Z,11.80
2018-02-13T22:28:50.102Z,11.90
2018-02-13T22:31:19.260Z,12.03
2018-02-13T22:33:53.538Z,12.60
2018-02-13T22:36:23.602Z,12.40
2018-02-13T22:38:54.667Z,13.37
2018-02-13T22:41:23.272Z,12.30
2018-02-13T22:43:53.606Z,12.17
2018-02-13T22:46:25.136Z,12.80
2018-02-13T22:48:56.385Z,11.57
2018-02-13T22:51:33.659Z,13.67
2018-02-13T22:54:02.152Z,13.70
2018-02-13T22:56:32.748Z,12.53
2018-02-13T22:59:01.473Z,13.33
2018-02-13T23:01:31.628Z,13.77
2018-02-13T23:04:00.292Z,12.80
2018-02-13T23:06:28.751Z,12.20
2018-02-13T23:08:57.356Z,11.93
2018-02-13T23:11:27.450Z,11.53
2018-02-13T23:13:57.999Z,11.60
2018-02-13T23:16:26.581Z,12.17
2018-02-13T23:18:55.256Z,12.63
2018-02-13T23:21:23.808Z,13.13
2018-02-13T23:23:52.573Z,12.80
2018-02-13T23:26:21.800Z,13.30
2018-02-13T23:28:50.380Z,11.57
2018-02-13T23:31:20.732Z,11.77
2018-02-13T23:33:54.956Z,12.43
2018-02-13T23:36:26.668Z,12.90
2018-02-13T23:38:56.930Z,12.30
2018-02-13T23:41:28.012Z,13.20
2018-02-13T23:43:58.234Z,13.00
2018-02-13T23:46:31.046Z,12.17
2018-02-13T23:48:59.704Z,12.37
2018-02-13T23:51:28.192Z,13.20
2018-02-13T23:53:56.674Z,12.37
2018-02-13T23:56:27.782Z,13.13
2018-02-13T23:59:04.300Z,13.53
